x

Boston 16 Nm East Of Boston, Ma (44013) Wave Buoy

4:50 - Fri 30th Sep 2016 All times are EDT. -4 hours from GMT.

  • Sig Wave height 5.9ft
  • Swell Direction
  • Peak Period 9s
  • Average Period 5s
  • Wind
    20mph, 25mph gusts
  • Sea Temp 61°f
  • Ar Temp 59°f
  • Sea Pressure 1028.7mb
  • Boston 16 Nm East Of Boston, Ma
  • Boston 16 Nm East Of Boston, Ma

More Historic Weather Station data

Upgrade to MSW Pro to gain access to the past 30 days of data for over 8000 Wavebouys and Weather Stations around the globe.

Join Pro

Comparision Forecast

View Surf forecast
   
Sex 09/30 4:50 6ft 9s 5s 20 25 mph 1028.7mb 61f 59f
3:50 5.5ft 6s 5s 20 25 mph 1028.9mb 61f 59f
2:50 5.5ft 7s 5s 22 25 mph 1029.3mb 61f 59f
1:50 6ft 7s 5s 22 27 mph 1029.6mb 60f 59f
12:50 6ft 9s 5s 22 27 mph 1030mb 60f 59f
11:50 6ft 8s 6s 22 27 mph 1030.2mb 60f 59f
10:50 6ft 9s 6s 20 25 mph 1030.5mb 61f 59f
9:50 6ft 7s 5s 20 25 mph 1030.7mb 61f 59f
8:50 6.5ft 7s 6s 20 25 mph 1031.1mb 61f 59f
7:50 7ft 8s 6s 22 25 mph 1030.8mb 60f 59f
6:50 6.5ft 9s 6s 22 25 mph 1030.3mb 61f 59f
5:50 7ft 9s 6s 20 22 mph 1030.7mb 61f 60f
4:50 7ft 9s 6s 20 22 mph 1030.6mb 61f 60f
3:50 7ft 8s 6s 20 25 mph 1030.8mb 61f 59f
2:50 8ft 8s 6s 20 25 mph 1031.2mb 61f 59f
1:50 7.5ft 8s 6s 22 27 mph 1030.7mb 61f 59f
12:50 8ft 8s 6s 22 25 mph 1031.9mb 61f 59f
Qui 09/29 11:50 7.5ft 8s 6s 25 29 mph 1031.3mb 61f 60f
10:50 7.5ft 8s 6s 22 27 mph 1032.1mb 61f 60f
9:50 8ft 8s 6s 22 27 mph 1032.1mb 61f 59f
8:50 7ft 8s 6s 22 27 mph 1031.3mb 61f 59f
7:50 7.5ft 8s 6s 22 27 mph 1031.6mb 61f 58f
6:50 8ft 8s 6s 20 25 mph 1031.6mb 61f 58f
5:50 7.5ft 8s 6s 20 22 mph 1031.7mb 61f 57f
4:50 7.5ft 9s 6s 22 27 mph 1031.6mb 61f 57f
3:50 7.5ft 9s 6s 20 27 mph 1031.5mb 61f 57f
2:50 8ft 9s 6s 20 27 mph 1031.5mb 62f 57f
1:50 8ft 8s 6s 20 25 mph 1031.9mb 62f 57f
12:50 9ft 8s 6s 22 27 mph 1031.9mb 62f 56f
11:50 8ft 8s 6s 22 27 mph 1031.3mb 62f 57f
10:50 9ft 8s 6s 25 27 mph 1030.7mb 62f 57f
9:50 9ft 8s 6s 25 27 mph 1030.7mb 62f 56f
8:50 9ft 8s 6s 22 27 mph 1030.1mb 62f 57f
7:50 8.5ft 9s 6s 25 29 mph 1029.7mb 62f 57f
6:50 9.5ft 8s 6s 22 29 mph 1029.1mb 62f 57f
5:50 10ft 8s 6s 27 31 mph 1028mb 62f 58f
4:50 10ft 8s 6s 27 31 mph 1027.7mb 62f 58f
3:50 10ft 8s 6s 25 31 mph 1027.3mb 62f 59f
2:50 9.5ft 8s 6s 27 34 mph 1026.7mb 62f 59f
1:50 10ft 8s 6s 27 31 mph 1026.9mb 62f 59f
12:50 9ft 8s 6s 27 31 mph 1026.4mb 62f 60f
Qua 09/28 11:50 8.5ft 8s 6s 27 31 mph 1026.5mb 62f 60f
10:50 9ft 8s 6s 27 31 mph 1026mb 62f 60f
9:50 9ft 8s 6s 27 31 mph 1025.6mb 63f 60f
8:50 9.5ft 8s 6s 27 31 mph 1025.2mb 63f 60f
7:50 8.5ft 8s 6s 25 31 mph 1024.5mb 63f 59f
6:50 8.5ft 8s 6s 27 31 mph 1024.2mb 63f 58f
5:50 9ft 8s 6s 27 31 mph 1024.2mb 63f 58f
4:50 7.5ft 8s 6s 25 29 mph 1024mb 63f 58f
3:50 8ft 7s 6s 25 29 mph 1023.9mb 62f 58f
2:50 7ft 7s 6s 25 31 mph 1023.4mb 62f 57f
1:50 7.5ft 7s 6s 27 31 mph 1023.2mb 62f 57f
12:50 6ft 7s 5s 27 31 mph 1023.2mb 62f 57f
11:50 6.5ft 6s 5s 25 31 mph 1022.8mb 63f 58f
10:50 5.5ft 6s 5s 25 31 mph 1022.6mb 63f 58f
9:50 5ft 6s 5s 22 27 mph 1022.7mb 63f 59f
8:50 4.5ft 5s 4s 22 27 mph 1022.1mb 64f 59f
7:50 4.5ft 5s 4s 18 25 mph 1021.5mb 64f 58f
6:50 4ft 5s 4s 20 25 mph 1020.6mb 64f 59f
5:50 3.5ft 4s 4s 20 25 mph 1019.8mb 64f 60f
4:50 2.5ft 4s 4s 20 25 mph 1019.3mb 62f 61f
3:50 2.5ft 3s 4s 18 22 mph 1018.6mb 62f 62f
2:50 1.6ft 11s 4s 16 20 mph 1018.2mb 62f 62f
1:50 1ft 11s 4s 13 16 mph 1017.7mb 62f 62f
12:50 1ft 11s 4s 9 11 mph 1017mb 62f 63f
Ter 09/27 11:50 1ft 12s 4s 9
mph
1016.4mb 62f 63f
10:50 1ft 11s 5s 7 9 mph 1015.8mb 63f 63f
9:50 1ft 12s 5s 7
mph
1015.1mb 63f 63f
8:50 1ft 12s 5s 7 9 mph 1014.6mb 63f 63f
7:50 1.3ft 11s 5s 7
mph
1014.2mb 63f 64f
6:50 1ft 11s 5s 7 9 mph 1013.3mb 64f 64f
5:50 1.3ft 12s 5s 4 7 mph 1013mb 64f 65f
4:50 1.3ft 12s 5s 4
mph
1012.6mb 64f 65f
3:50 1ft 12s 5s 2 4 mph 1012.3mb 64f 65f
2:50 1.3ft 4s 4s 2
mph
1012.3mb 64f 64f
1:50 1ft 12s 4s 4
mph
1012mb 63f 64f
12:50 1ft 13s 4s 4 7 mph 1012.2mb 63f 62f
11:50 1.3ft 13s 4s 4
mph
1011.9mb 63f 62f
10:50 1.3ft 12s 4s 4
mph
1012.1mb 63f 62f
9:50 1ft 11s 4s 4 7 mph 1011.7mb 63f 62f
7:50 1.3ft 4s 4s 7 9 mph 1012.1mb 63f 63f
6:50 1.3ft 3s 4s 9 11 mph 1012.5mb 63f 63f
5:50 1.6ft 4s 3s 7 9 mph 1012.6mb 63f 63f
4:50 1.3ft 4s 3s 13
mph
1013mb 63f 63f
3:50 1.6ft 3s 3s 13 16 mph 1013.7mb 62f 63f
2:50 1.6ft 3s 3s 13 16 mph 1014.5mb 62f 63f
1:50 1.6ft 4s 3s 16 18 mph 1015.2mb 63f 62f
12:50 2ft 3s 3s 16 18 mph 1015.7mb 63f 61f
Seg 09/26 11:50 1.6ft 3s 3s 18 20 mph 1016.6mb 63f 61f
10:50 2ft 4s 3s 18 20 mph 1017.1mb 63f 61f